sensor_id;sensor_type;location;lat;lon;timestamp;temperature;humidity
20384;DHT22;46458;50.966;7.002;2022-08-23T00:00:22;22.00;99.90
20384;DHT22;46458;50.966;7.002;2022-08-23T00:03:02;22.00;99.90
20384;DHT22;46458;50.966;7.002;2022-08-23T00:05:32;22.00;99.90
20384;DHT22;46458;50.966;7.002;2022-08-23T00:08:10;21.90;99.90
20384;DHT22;46458;50.966;7.002;2022-08-23T00:10:48;21.90;99.90
20384;DHT22;46458;50.966;7.002;2022-08-23T00:13:26;21.80;99.90
20384;DHT22;46458;50.966;7.002;2022-08-23T00:16:03;21.80;99.90
20384;DHT22;46458;50.966;7.002;2022-08-23T00:18:36;21.80;99.90
20384;DHT22;46458;50.966;7.002;2022-08-23T00:21:10;21.80;99.90
20384;DHT22;46458;50.966;7.002;2022-08-23T00:23:43;21.80;99.90
20384;DHT22;46458;50.966;7.002;2022-08-23T00:26:15;21.80;99.90
20384;DHT22;46458;50.966;7.002;2022-08-23T00:28:48;21.70;99.90
20384;DHT22;46458;50.966;7.002;2022-08-23T00:31:21;21.60;99.90
20384;DHT22;46458;50.966;7.002;2022-08-23T00:33:53;21.60;99.90
20384;DHT22;46458;50.966;7.002;2022-08-23T00:36:23;21.50;99.90
20384;DHT22;46458;50.966;7.002;2022-08-23T00:38:59;21.50;99.90
20384;DHT22;46458;50.966;7.002;2022-08-23T00:41:32;21.50;99.90
20384;DHT22;46458;50.966;7.002;2022-08-23T00:44:04;21.40;99.90
20384;DHT22;46458;50.966;7.002;2022-08-23T00:46:52;21.40;99.90
20384;DHT22;46458;50.966;7.002;2022-08-23T00:49:51;21.40;99.90
20384;DHT22;46458;50.966;7.002;2022-08-23T00:52:28;21.30;99.90
20384;DHT22;46458;50.966;7.002;2022-08-23T00:54:59;21.30;99.90
20384;DHT22;46458;50.966;7.002;2022-08-23T00:57:29;21.10;99.90
20384;DHT22;46458;50.966;7.002;2022-08-23T00:59:59;21.10;99.90
20384;DHT22;46458;50.966;7.002;2022-08-23T01:02:30;21.10;99.90
20384;DHT22;46458;50.966;7.002;2022-08-23T01:05:00;21.00;99.90
20384;DHT22;46458;50.966;7.002;2022-08-23T01:07:40;21.00;99.90
20384;DHT22;46458;50.966;7.002;2022-08-23T01:10:22;20.90;99.90
20384;DHT22;46458;50.966;7.002;2022-08-23T01:12:58;20.90;99.90
20384;DHT22;46458;50.966;7.002;2022-08-23T01:15:32;20.90;99.90
20384;DHT22;46458;50.966;7.002;2022-08-23T01:18:07;20.90;99.90
20384;DHT22;46458;50.966;7.002;2022-08-23T01:20:41;20.90;99.90
20384;DHT22;46458;50.966;7.002;2022-08-23T01:23:28;20.90;99.90
20384;DHT22;46458;50.966;7.002;2022-08-23T01:25:58;20.90;99.90
20384;DHT22;46458;50.966;7.002;2022-08-23T01:28:27;20.80;99.90
20384;DHT22;46458;50.966;7.002;2022-08-23T01:30:56;20.80;99.90
20384;DHT22;46458;50.966;7.002;2022-08-23T01:33:25;20.80;99.90
20384;DHT22;46458;50.966;7.002;2022-08-23T01:35:58;20.80;99.90
20384;DHT22;46458;50.966;7.002;2022-08-23T01:38:31;20.80;99.90
20384;DHT22;46458;50.966;7.002;2022-08-23T01:41:00;20.70;99.90
20384;DHT22;46458;50.966;7.002;2022-08-23T01:43:31;20.80;99.90
20384;DHT22;46458;50.966;7.002;2022-08-23T01:46:07;20.70;99.90
20384;DHT22;46458;50.966;7.002;2022-08-23T01:48:38;20.60;99.90
20384;DHT22;46458;50.966;7.002;2022-08-23T01:51:07;20.60;99.90
20384;DHT22;46458;50.966;7.002;2022-08-23T01:53:39;20.50;99.90
20384;DHT22;46458;50.966;7.002;2022-08-23T01:56:08;20.50;99.90
20384;DHT22;46458;50.966;7.002;2022-08-23T01:58:41;20.50;99.90
20384;DHT22;46458;50.966;7.002;2022-08-23T02:01:10;20.50;99.90
20384;DHT22;46458;50.966;7.002;2022-08-23T02:03:39;20.40;99.90
20384;DHT22;46458;50.966;7.002;2022-08-23T02:06:09;20.40;99.90
20384;DHT22;46458;50.966;7.002;2022-08-23T02:08:41;20.30;99.90
20384;DHT22;46458;50.966;7.002;2022-08-23T02:11:25;20.30;99.90
20384;DHT22;46458;50.966;7.002;2022-08-23T02:13:59;20.30;99.90
20384;DHT22;46458;50.966;7.002;2022-08-23T02:16:38;20.40;99.90
20384;DHT22;46458;50.966;7.002;2022-08-23T02:19:13;20.40;99.90
20384;DHT22;46458;50.966;7.002;2022-08-23T02:21:46;20.40;99.90
20384;DHT22;46458;50.966;7.002;2022-08-23T02:24:22;20.40;99.90
20384;DHT22;46458;50.966;7.002;2022-08-23T02:27:00;20.40;99.90
20384;DHT22;46458;50.966;7.002;2022-08-23T02:29:37;20.40;99.90
20384;DHT22;46458;50.966;7.002;2022-08-23T02:32:11;20.30;99.90
20384;DHT22;46458;50.966;7.002;2022-08-23T02:34:44;20.40;99.90
20384;DHT22;46458;50.966;7.002;2022-08-23T02:37:14;20.30;99.90
20384;DHT22;46458;50.966;7.002;2022-08-23T02:39:46;20.30;99.90
20384;DHT22;46458;50.966;7.002;2022-08-23T02:42:17;20.20;99.90
20384;DHT22;46458;50.966;7.002;2022-08-23T02:44:47;20.20;99.90
20384;DHT22;46458;50.966;7.002;2022-08-23T02:47:19;20.10;99.90
20384;DHT22;46458;50.966;7.002;2022-08-23T02:50:07;20.10;99.90
20384;DHT22;46458;50.966;7.002;2022-08-23T02:52:42;20.10;99.90
20384;DHT22;46458;50.966;7.002;2022-08-23T02:55:14;20.10;99.90
20384;DHT22;46458;50.966;7.002;2022-08-23T02:57:50;20.20;99.90
20384;DHT22;46458;50.966;7.002;2022-08-23T03:00:45;20.20;99.90
20384;DHT22;46458;50.966;7.002;2022-08-23T03:03:17;20.20;99.90
20384;DHT22;46458;50.966;7.002;2022-08-23T03:05:50;20.20;99.90
20384;DHT22;46458;50.966;7.002;2022-08-23T03:08:27;20.10;99.90
20384;DHT22;46458;50.966;7.002;2022-08-23T03:11:11;20.10;99.90
20384;DHT22;46458;50.966;7.002;2022-08-23T03:13:47;20.00;99.90
20384;DHT22;46458;50.966;7.002;2022-08-23T03:16:20;19.90;99.90
20384;DHT22;46458;50.966;7.002;2022-08-23T03:18:52;19.90;99.90
20384;DHT22;46458;50.966;7.002;2022-08-23T03:21:29;19.90;99.90
20384;DHT22;46458;50.966;7.002;2022-08-23T03:24:02;19.90;99.90
20384;DHT22;46458;50.966;7.002;2022-08-23T03:26:35;19.90;99.90
20384;DHT22;46458;50.966;7.002;2022-08-23T03:29:04;19.90;99.90
20384;DHT22;46458;50.966;7.002;2022-08-23T03:31:48;19.90;99.90
20384;DHT22;46458;50.966;7.002;2022-08-23T03:34:22;20.00;99.90
20384;DHT22;46458;50.966;7.002;2022-08-23T03:36:52;20.00;99.90
20384;DHT22;46458;50.966;7.002;2022-08-23T03:39:21;20.00;99.90
20384;DHT22;46458;50.966;7.002;2022-08-23T03:41:54;20.00;99.90
20384;DHT22;46458;50.966;7.002;2022-08-23T03:44:26;20.00;99.90
20384;DHT22;46458;50.966;7.002;2022-08-23T03:46:56;20.00;99.90
20384;DHT22;46458;50.966;7.002;2022-08-23T03:49:26;20.00;99.90
20384;DHT22;46458;50.966;7.002;2022-08-23T03:51:59;20.00;99.90
20384;DHT22;46458;50.966;7.002;2022-08-23T03:54:30;19.90;99.90
20384;DHT22;46458;50.966;7.002;2022-08-23T03:57:05;19.80;99.90
20384;DHT22;46458;50.966;7.002;2022-08-23T03:59:37;19.80;99.90
20384;DHT22;46458;50.966;7.002;2022-08-23T04:02:10;19.70;99.90
20384;DHT22;46458;50.966;7.002;2022-08-23T04:04:41;19.70;99.90
20384;DHT22;46458;50.966;7.002;2022-08-23T04:07:21;19.60;99.90
20384;DHT22;46458;50.966;7.002;2022-08-23T04:09:54;19.70;99.90
20384;DHT22;46458;50.966;7.002;2022-08-23T04:12:28;19.80;99.90
20384;DHT22;46458;50.966;7.002;2022-08-23T04:14:57;19.80;99.90
20384;DHT22;46458;50.966;7.002;2022-08-23T04:17:26;19.80;99.90
20384;DHT22;46458;50.966;7.002;2022-08-23T04:19:55;19.80;99.90
20384;DHT22;46458;50.966;7.002;2022-08-23T04:22:25;19.80;99.90
20384;DHT22;46458;50.966;7.002;2022-08-23T04:24:53;19.80;99.90
20384;DHT22;46458;50.966;7.002;2022-08-23T04:27:23;19.80;99.90
20384;DHT22;46458;50.966;7.002;2022-08-23T04:29:55;19.70;99.90
20384;DHT22;46458;50.966;7.002;2022-08-23T04:32:25;19.80;99.90
20384;DHT22;46458;50.966;7.002;2022-08-23T04:34:54;19.80;99.90
20384;DHT22;46458;50.966;7.002;2022-08-23T04:37:24;19.70;99.90
20384;DHT22;46458;50.966;7.002;2022-08-23T04:39:53;19.70;99.90
20384;DHT22;46458;50.966;7.002;2022-08-23T04:42:40;19.70;99.90
20384;DHT22;46458;50.966;7.002;2022-08-23T04:45:13;19.70;99.90
20384;DHT22;46458;50.966;7.002;2022-08-23T04:47:48;19.60;99.90
20384;DHT22;46458;50.966;7.002;2022-08-23T04:50:17;19.60;99.90
20384;DHT22;46458;50.966;7.002;2022-08-23T04:53:06;19.60;99.90
20384;DHT22;46458;50.966;7.002;2022-08-23T04:55:48;19.70;99.90
20384;DHT22;46458;50.966;7.002;2022-08-23T04:58:18;19.60;99.90
20384;DHT22;46458;50.966;7.002;2022-08-23T05:00:51;19.60;99.90
20384;DHT22;46458;50.966;7.002;2022-08-23T05:03:28;19.60;99.90
20384;DHT22;46458;50.966;7.002;2022-08-23T05:05:57;19.60;99.90
20384;DHT22;46458;50.966;7.002;2022-08-23T05:08:33;19.60;99.90
20384;DHT22;46458;50.966;7.002;2022-08-23T05:11:06;19.60;99.90
20384;DHT22;46458;50.966;7.002;2022-08-23T05:13:36;19.70;99.90
20384;DHT22;46458;50.966;7.002;2022-08-23T05:16:10;19.70;99.90
20384;DHT22;46458;50.966;7.002;2022-08-23T05:18:51;19.70;99.90
20384;DHT22;46458;50.966;7.002;2022-08-23T05:21:21;19.80;99.90
20384;DHT22;46458;50.966;7.002;2022-08-23T05:23:51;19.80;99.90
20384;DHT22;46458;50.966;7.002;2022-08-23T05:26:21;19.80;99.90
20384;DHT22;46458;50.966;7.002;2022-08-23T05:28:50;19.70;99.90
20384;DHT22;46458;50.966;7.002;2022-08-23T05:31:28;19.80;99.90
20384;DHT22;46458;50.966;7.002;2022-08-23T05:34:00;19.80;99.90
20384;DHT22;46458;50.966;7.002;2022-08-23T05:36:44;19.80;99.90
20384;DHT22;46458;50.966;7.002;2022-08-23T05:39:15;19.80;99.90
20384;DHT22;46458;50.966;7.002;2022-08-23T05:41:45;19.90;99.90
20384;DHT22;46458;50.966;7.002;2022-08-23T05:44:14;19.90;99.90
20384;DHT22;46458;50.966;7.002;2022-08-23T05:46:46;20.00;99.90
20384;DHT22;46458;50.966;7.002;2022-08-23T05:49:28;20.00;99.90
20384;DHT22;46458;50.966;7.002;2022-08-23T05:52:02;20.10;99.90
20384;DHT22;46458;50.966;7.002;2022-08-23T05:54:33;20.20;99.90
20384;DHT22;46458;50.966;7.002;2022-08-23T05:57:16;20.20;99.90
20384;DHT22;46458;50.966;7.002;2022-08-23T05:59:48;20.30;99.90
20384;DHT22;46458;50.966;7.002;2022-08-23T06:02:20;20.40;99.90
20384;DHT22;46458;50.966;7.002;2022-08-23T06:04:49;20.40;99.90
20384;DHT22;46458;50.966;7.002;2022-08-23T06:07:20;20.40;99.90
20384;DHT22;46458;50.966;7.002;2022-08-23T06:09:51;20.40;99.90
20384;DHT22;46458;50.966;7.002;2022-08-23T06:12:23;20.60;99.90
20384;DHT22;46458;50.966;7.002;2022-08-23T06:14:52;20.60;99.90
20384;DHT22;46458;50.966;7.002;2022-08-23T06:17:25;20.70;99.90
20384;DHT22;46458;50.966;7.002;2022-08-23T06:19:54;20.80;99.90
20384;DHT22;46458;50.966;7.002;2022-08-23T06:22:33;20.90;99.90
20384;DHT22;46458;50.966;7.002;2022-08-23T06:25:03;20.90;99.90
20384;DHT22;46458;50.966;7.002;2022-08-23T06:27:53;21.00;99.90
20384;DHT22;46458;50.966;7.002;2022-08-23T06:30:22;21.10;99.90
20384;DHT22;46458;50.966;7.002;2022-08-23T06:33:13;21.20;99.90
20384;DHT22;46458;50.966;7.002;2022-08-23T06:35:45;21.30;99.90
20384;DHT22;46458;50.966;7.002;2022-08-23T06:38:24;21.30;99.90
20384;DHT22;46458;50.966;7.002;2022-08-23T06:41:10;21.40;99.90
20384;DHT22;46458;50.966;7.002;2022-08-23T06:43:49;21.50;99.90
20384;DHT22;46458;50.966;7.002;2022-08-23T06:46:29;21.60;99.90
20384;DHT22;46458;50.966;7.002;2022-08-23T06:49:01;21.60;99.90
20384;DHT22;46458;50.966;7.002;2022-08-23T06:51:33;21.70;99.90
20384;DHT22;46458;50.966;7.002;2022-08-23T06:54:30;21.70;99.90
20384;DHT22;46458;50.966;7.002;2022-08-23T06:57:19;21.90;99.90
20384;DHT22;46458;50.966;7.002;2022-08-23T07:00:21;22.00;99.90
20384;DHT22;46458;50.966;7.002;2022-08-23T07:03:06;22.10;99.90
20384;DHT22;46458;50.966;7.002;2022-08-23T07:05:56;22.20;99.90
20384;DHT22;46458;50.966;7.002;2022-08-23T07:08:29;22.20;99.90
20384;DHT22;46458;50.966;7.002;2022-08-23T07:10:58;22.30;99.90
20384;DHT22;46458;50.966;7.002;2022-08-23T07:13:27;22.40;99.90
20384;DHT22;46458;50.966;7.002;2022-08-23T07:16:00;22.40;99.90
20384;DHT22;46458;50.966;7.002;2022-08-23T07:18:31;22.60;99.90
20384;DHT22;46458;50.966;7.002;2022-08-23T07:21:04;22.70;99.90
20384;DHT22;46458;50.966;7.002;2022-08-23T07:23:38;22.90;99.90
20384;DHT22;46458;50.966;7.002;2022-08-23T07:26:10;23.00;99.90
20384;DHT22;46458;50.966;7.002;2022-08-23T07:28:40;23.10;99.90
20384;DHT22;46458;50.966;7.002;2022-08-23T07:31:12;23.20;99.90
20384;DHT22;46458;50.966;7.002;2022-08-23T07:33:43;23.30;99.90
20384;DHT22;46458;50.966;7.002;2022-08-23T07:36:21;23.30;99.90
20384;DHT22;46458;50.966;7.002;2022-08-23T07:38:51;23.30;99.90
20384;DHT22;46458;50.966;7.002;2022-08-23T07:41:22;23.40;99.90
20384;DHT22;46458;50.966;7.002;2022-08-23T07:43:52;23.50;99.90
20384;DHT22;46458;50.966;7.002;2022-08-23T07:46:23;23.60;99.90
20384;DHT22;46458;50.966;7.002;2022-08-23T07:48:52;23.70;99.90
20384;DHT22;46458;50.966;7.002;2022-08-23T07:51:29;23.80;99.90
20384;DHT22;46458;50.966;7.002;2022-08-23T07:54:01;23.80;99.90
20384;DHT22;46458;50.966;7.002;2022-08-23T07:56:31;24.00;99.90
20384;DHT22;46458;50.966;7.002;2022-08-23T07:59:02;24.10;99.90
20384;DHT22;46458;50.966;7.002;2022-08-23T08:01:34;24.30;99.90
20384;DHT22;46458;50.966;7.002;2022-08-23T08:04:04;24.40;99.90
20384;DHT22;46458;50.966;7.002;2022-08-23T08:06:42;24.50;99.90
20384;DHT22;46458;50.966;7.002;2022-08-23T08:09:14;24.70;99.90
20384;DHT22;46458;50.966;7.002;2022-08-23T08:11:46;24.70;99.90
20384;DHT22;46458;50.966;7.002;2022-08-23T08:14:22;24.80;99.90
20384;DHT22;46458;50.966;7.002;2022-08-23T08:16:54;24.80;99.90
20384;DHT22;46458;50.966;7.002;2022-08-23T08:19:54;25.00;99.90
20384;DHT22;46458;50.966;7.002;2022-08-23T08:22:45;25.20;99.90
20384;DHT22;46458;50.966;7.002;2022-08-23T08:25:33;25.50;99.90
20384;DHT22;46458;50.966;7.002;2022-08-23T08:28:05;25.40;99.90
20384;DHT22;46458;50.966;7.002;2022-08-23T08:30:34;25.60;99.90
20384;DHT22;46458;50.966;7.002;2022-08-23T08:33:04;25.70;99.90
20384;DHT22;46458;50.966;7.002;2022-08-23T08:35:33;26.00;99.90
20384;DHT22;46458;50.966;7.002;2022-08-23T08:38:06;26.10;99.90
20384;DHT22;46458;50.966;7.002;2022-08-23T08:40:38;26.40;99.90
20384;DHT22;46458;50.966;7.002;2022-08-23T08:43:17;26.50;99.90
20384;DHT22;46458;50.966;7.002;2022-08-23T08:46:00;26.70;99.90
20384;DHT22;46458;50.966;7.002;2022-08-23T08:48:38;26.90;99.90
20384;DHT22;46458;50.966;7.002;2022-08-23T08:51:19;27.10;99.90
20384;DHT22;46458;50.966;7.002;2022-08-23T08:53:53;27.30;99.90
20384;DHT22;46458;50.966;7.002;2022-08-23T08:56:37;27.40;99.90
20384;DHT22;46458;50.966;7.002;2022-08-23T08:59:23;27.60;99.90
20384;DHT22;46458;50.966;7.002;2022-08-23T09:01:52;27.50;99.90
20384;DHT22;46458;50.966;7.002;2022-08-23T09:04:29;27.50;99.90
20384;DHT22;46458;50.966;7.002;2022-08-23T09:07:09;27.70;99.90
20384;DHT22;46458;50.966;7.002;2022-08-23T09:12:47;28.00;98.90
20384;DHT22;46458;50.966;7.002;2022-08-23T09:15:24;28.20;99.10
20384;DHT22;46458;50.966;7.002;2022-08-23T09:18:01;28.30;98.20
20384;DHT22;46458;50.966;7.002;2022-08-23T09:20:31;28.50;98.30
20384;DHT22;46458;50.966;7.002;2022-08-23T09:23:06;28.50;99.30
20384;DHT22;46458;50.966;7.002;2022-08-23T09:25:40;28.80;97.60
20384;DHT22;46458;50.966;7.002;2022-08-23T09:28:15;29.10;97.50
20384;DHT22;46458;50.966;7.002;2022-08-23T09:30:49;29.30;97.70
20384;DHT22;46458;50.966;7.002;2022-08-23T09:33:25;29.20;97.80
20384;DHT22;46458;50.966;7.002;2022-08-23T09:36:12;29.50;97.00
20384;DHT22;46458;50.966;7.002;2022-08-23T09:38:51;29.70;96.90
20384;DHT22;46458;50.966;7.002;2022-08-23T09:41:29;29.40;96.60
20384;DHT22;46458;50.966;7.002;2022-08-23T09:44:02;29.70;96.80
20384;DHT22;46458;50.966;7.002;2022-08-23T09:46:33;29.70;96.50
20384;DHT22;46458;50.966;7.002;2022-08-23T09:49:23;29.90;96.10
20384;DHT22;46458;50.966;7.002;2022-08-23T09:52:12;30.20;96.30
20384;DHT22;46458;50.966;7.002;2022-08-23T09:54:42;30.30;96.30
20384;DHT22;46458;50.966;7.002;2022-08-23T09:57:23;30.40;96.30
20384;DHT22;46458;50.966;7.002;2022-08-23T09:59:53;30.50;96.00
20384;DHT22;46458;50.966;7.002;2022-08-23T10:02:31;30.50;96.10
20384;DHT22;46458;50.966;7.002;2022-08-23T10:05:19;30.40;95.50
20384;DHT22;46458;50.966;7.002;2022-08-23T10:07:58;30.70;95.50
20384;DHT22;46458;50.966;7.002;2022-08-23T10:10:33;31.50;94.60
20384;DHT22;46458;50.966;7.002;2022-08-23T10:13:08;31.50;94.60
20384;DHT22;46458;50.966;7.002;2022-08-23T10:15:46;31.30;94.20
20384;DHT22;46458;50.966;7.002;2022-08-23T10:18:31;31.20;94.30
20384;DHT22;46458;50.966;7.002;2022-08-23T10:21:07;32.20;93.60
20384;DHT22;46458;50.966;7.002;2022-08-23T10:23:46;32.70;93.00
20384;DHT22;46458;50.966;7.002;2022-08-23T10:26:25;33.80;92.00
20384;DHT22;46458;50.966;7.002;2022-08-23T10:29:03;35.20;90.30
20384;DHT22;46458;50.966;7.002;2022-08-23T10:31:54;36.50;85.70
20384;DHT22;46458;50.966;7.002;2022-08-23T10:34:41;36.40;85.50
20384;DHT22;46458;50.966;7.002;2022-08-23T10:37:41;35.20;85.30
20384;DHT22;46458;50.966;7.002;2022-08-23T10:40:17;34.50;87.00
20384;DHT22;46458;50.966;7.002;2022-08-23T10:43:01;32.70;90.10
20384;DHT22;46458;50.966;7.002;2022-08-23T10:45:39;31.70;90.70
20384;DHT22;46458;50.966;7.002;2022-08-23T10:48:22;31.20;91.50
20384;DHT22;46458;50.966;7.002;2022-08-23T10:50:58;31.20;91.90
20384;DHT22;46458;50.966;7.002;2022-08-23T10:53:34;31.00;90.90
20384;DHT22;46458;50.966;7.002;2022-08-23T10:56:06;30.80;91.80
20384;DHT22;46458;50.966;7.002;2022-08-23T10:58:48;30.50;91.80
20384;DHT22;46458;50.966;7.002;2022-08-23T11:01:24;30.30;91.40
20384;DHT22;46458;50.966;7.002;2022-08-23T11:04:00;30.10;91.90
20384;DHT22;46458;50.966;7.002;2022-08-23T11:06:46;30.50;92.00
20384;DHT22;46458;50.966;7.002;2022-08-23T11:12:27;29.90;93.20
20384;DHT22;46458;50.966;7.002;2022-08-23T11:15:17;29.80;93.10
20384;DHT22;46458;50.966;7.002;2022-08-23T11:17:59;29.60;93.50
20384;DHT22;46458;50.966;7.002;2022-08-23T11:20:54;29.70;93.30
20384;DHT22;46458;50.966;7.002;2022-08-23T11:23:48;29.80;92.90
20384;DHT22;46458;50.966;7.002;2022-08-23T11:29:28;29.70;93.30
20384;DHT22;46458;50.966;7.002;2022-08-23T11:37:58;32.00;90.80
20384;DHT22;46458;50.966;7.002;2022-08-23T11:43:37;32.80;89.50
20384;DHT22;46458;50.966;7.002;2022-08-23T11:52:57;35.00;84.90
20384;DHT22;46458;50.966;7.002;2022-08-23T11:58:55;35.30;84.90
20384;DHT22;46458;50.966;7.002;2022-08-23T12:01:30;34.00;85.40
20384;DHT22;46458;50.966;7.002;2022-08-23T12:04:06;33.00;87.00
20384;DHT22;46458;50.966;7.002;2022-08-23T12:06:44;31.70;89.30
20384;DHT22;46458;50.966;7.002;2022-08-23T12:09:48;31.00;90.60
20384;DHT22;46458;50.966;7.002;2022-08-23T12:12:28;30.30;90.80
20384;DHT22;46458;50.966;7.002;2022-08-23T12:15:00;30.30;91.70
20384;DHT22;46458;50.966;7.002;2022-08-23T12:20:30;29.90;91.40
20384;DHT22;46458;50.966;7.002;2022-08-23T12:23:03;30.00;91.60
20384;DHT22;46458;50.966;7.002;2022-08-23T12:25:35;30.10;91.60
20384;DHT22;46458;50.966;7.002;2022-08-23T12:28:20;30.10;91.60
20384;DHT22;46458;50.966;7.002;2022-08-23T12:30:58;30.70;91.20
20384;DHT22;46458;50.966;7.002;2022-08-23T12:33:39;31.10;91.10
20384;DHT22;46458;50.966;7.002;2022-08-23T12:36:14;31.00;91.10
20384;DHT22;46458;50.966;7.002;2022-08-23T12:38:53;31.50;90.60
20384;DHT22;46458;50.966;7.002;2022-08-23T12:41:28;32.40;90.00
20384;DHT22;46458;50.966;7.002;2022-08-23T12:44:02;33.20;87.50
20384;DHT22;46458;50.966;7.002;2022-08-23T12:46:36;33.50;85.10
20384;DHT22;46458;50.966;7.002;2022-08-23T12:49:08;33.80;85.40
20384;DHT22;46458;50.966;7.002;2022-08-23T12:51:42;33.90;85.70
20384;DHT22;46458;50.966;7.002;2022-08-23T12:54:20;33.50;85.80
20384;DHT22;46458;50.966;7.002;2022-08-23T12:56:53;33.40;86.20
20384;DHT22;46458;50.966;7.002;2022-08-23T12:59:45;33.20;86.70
20384;DHT22;46458;50.966;7.002;2022-08-23T13:02:22;32.60;87.10
20384;DHT22;46458;50.966;7.002;2022-08-23T13:04:58;32.10;87.80
20384;DHT22;46458;50.966;7.002;2022-08-23T13:07:30;31.60;88.40
20384;DHT22;46458;50.966;7.002;2022-08-23T13:09:59;31.50;89.70
20384;DHT22;46458;50.966;7.002;2022-08-23T13:12:31;31.20;89.20
20384;DHT22;46458;50.966;7.002;2022-08-23T13:15:00;30.80;89.50
20384;DHT22;46458;50.966;7.002;2022-08-23T13:17:32;30.90;90.10
20384;DHT22;46458;50.966;7.002;2022-08-23T13:20:18;31.00;90.00
20384;DHT22;46458;50.966;7.002;2022-08-23T13:22:56;30.50;90.00
20384;DHT22;46458;50.966;7.002;2022-08-23T13:25:34;30.40;90.70
20384;DHT22;46458;50.966;7.002;2022-08-23T13:28:18;30.70;90.40
20384;DHT22;46458;50.966;7.002;2022-08-23T13:30:58;31.00;90.10
20384;DHT22;46458;50.966;7.002;2022-08-23T13:33:27;31.70;89.50
20384;DHT22;46458;50.966;7.002;2022-08-23T13:36:08;31.60;89.40
20384;DHT22;46458;50.966;7.002;2022-08-23T13:38:43;31.80;89.90
20384;DHT22;46458;50.966;7.002;2022-08-23T13:41:28;31.60;89.50
20384;DHT22;46458;50.966;7.002;2022-08-23T13:44:04;31.70;89.20
20384;DHT22;46458;50.966;7.002;2022-08-23T13:46:45;31.30;90.30
20384;DHT22;46458;50.966;7.002;2022-08-23T13:49:21;30.80;90.20
20384;DHT22;46458;50.966;7.002;2022-08-23T13:52:07;30.40;90.30
20384;DHT22;46458;50.966;7.002;2022-08-23T13:54:37;30.30;90.90
20384;DHT22;46458;50.966;7.002;2022-08-23T13:57:10;30.40;90.60
20384;DHT22;46458;50.966;7.002;2022-08-23T13:59:50;30.60;91.00
20384;DHT22;46458;50.966;7.002;2022-08-23T14:02:22;30.60;90.40
20384;DHT22;46458;50.966;7.002;2022-08-23T14:04:54;30.80;90.70
20384;DHT22;46458;50.966;7.002;2022-08-23T14:07:23;31.00;90.30
20384;DHT22;46458;50.966;7.002;2022-08-23T14:09:52;31.20;89.80
20384;DHT22;46458;50.966;7.002;2022-08-23T14:12:23;31.30;90.40
20384;DHT22;46458;50.966;7.002;2022-08-23T14:14:56;31.50;90.20
20384;DHT22;46458;50.966;7.002;2022-08-23T14:17:25;31.70;90.10
20384;DHT22;46458;50.966;7.002;2022-08-23T14:19:55;32.00;89.80
20384;DHT22;46458;50.966;7.002;2022-08-23T14:22:23;31.90;89.60
20384;DHT22;46458;50.966;7.002;2022-08-23T14:24:55;31.90;89.00
20384;DHT22;46458;50.966;7.002;2022-08-23T14:27:25;32.00;88.60
20384;DHT22;46458;50.966;7.002;2022-08-23T14:29:56;32.10;89.00
20384;DHT22;46458;50.966;7.002;2022-08-23T14:32:30;32.00;89.60
20384;DHT22;46458;50.966;7.002;2022-08-23T14:35:01;32.20;89.20
20384;DHT22;46458;50.966;7.002;2022-08-23T14:37:30;32.20;88.70
20384;DHT22;46458;50.966;7.002;2022-08-23T14:39:59;31.80;87.50
20384;DHT22;46458;50.966;7.002;2022-08-23T14:42:28;31.60;88.30
20384;DHT22;46458;50.966;7.002;2022-08-23T14:45:00;32.30;87.90
20384;DHT22;46458;50.966;7.002;2022-08-23T14:47:30;32.40;87.80
20384;DHT22;46458;50.966;7.002;2022-08-23T14:50:00;32.60;87.00
20384;DHT22;46458;50.966;7.002;2022-08-23T14:52:35;32.80;85.50
20384;DHT22;46458;50.966;7.002;2022-08-23T14:55:08;33.20;87.30
20384;DHT22;46458;50.966;7.002;2022-08-23T14:57:40;33.10;85.50
20384;DHT22;46458;50.966;7.002;2022-08-23T15:03:17;32.40;87.90
20384;DHT22;46458;50.966;7.002;2022-08-23T15:05:47;32.30;88.30
20384;DHT22;46458;50.966;7.002;2022-08-23T15:08:17;32.30;88.60
20384;DHT22;46458;50.966;7.002;2022-08-23T15:10:51;32.10;88.50
20384;DHT22;46458;50.966;7.002;2022-08-23T15:13:22;31.90;88.70
20384;DHT22;46458;50.966;7.002;2022-08-23T15:15:51;32.10;88.70
20384;DHT22;46458;50.966;7.002;2022-08-23T15:18:23;32.30;88.70
20384;DHT22;46458;50.966;7.002;2022-08-23T15:20:52;32.10;89.30
20384;DHT22;46458;50.966;7.002;2022-08-23T15:23:21;33.50;86.60
20384;DHT22;46458;50.966;7.002;2022-08-23T15:25:50;33.20;86.80
20384;DHT22;46458;50.966;7.002;2022-08-23T15:28:22;33.80;86.50
20384;DHT22;46458;50.966;7.002;2022-08-23T15:30:51;35.90;83.50
20384;DHT22;46458;50.966;7.002;2022-08-23T15:33:23;37.50;80.90
20384;DHT22;46458;50.966;7.002;2022-08-23T15:35:53;36.70;80.50
20384;DHT22;46458;50.966;7.002;2022-08-23T15:38:24;35.50;81.90
20384;DHT22;46458;50.966;7.002;2022-08-23T15:40:54;34.30;84.40
20384;DHT22;46458;50.966;7.002;2022-08-23T15:43:23;34.40;84.50
20384;DHT22;46458;50.966;7.002;2022-08-23T15:45:53;36.10;82.40
20384;DHT22;46458;50.966;7.002;2022-08-23T15:48:27;37.70;80.90
20384;DHT22;46458;50.966;7.002;2022-08-23T15:50:57;38.20;78.80
20384;DHT22;46458;50.966;7.002;2022-08-23T15:53:26;37.80;78.90
20384;DHT22;46458;50.966;7.002;2022-08-23T15:55:55;37.00;79.70
20384;DHT22;46458;50.966;7.002;2022-08-23T15:58:25;37.80;78.80
20384;DHT22;46458;50.966;7.002;2022-08-23T16:00:55;38.10;77.90
20384;DHT22;46458;50.966;7.002;2022-08-23T16:03:29;36.50;79.30
20384;DHT22;46458;50.966;7.002;2022-08-23T16:05:58;36.70;79.90
20384;DHT22;46458;50.966;7.002;2022-08-23T16:08:29;37.50;79.30
20384;DHT22;46458;50.966;7.002;2022-08-23T16:10:58;38.30;78.30
20384;DHT22;46458;50.966;7.002;2022-08-23T16:13:30;38.70;76.90
20384;DHT22;46458;50.966;7.002;2022-08-23T16:15:58;38.80;76.30
20384;DHT22;46458;50.966;7.002;2022-08-23T16:18:30;38.30;76.80
20384;DHT22;46458;50.966;7.002;2022-08-23T16:20:59;38.00;76.70
20384;DHT22;46458;50.966;7.002;2022-08-23T16:23:28;37.50;77.50
20384;DHT22;46458;50.966;7.002;2022-08-23T16:25:57;36.80;78.50
20384;DHT22;46458;50.966;7.002;2022-08-23T16:28:26;36.10;79.70
20384;DHT22;46458;50.966;7.002;2022-08-23T16:30:55;35.30;80.60
20384;DHT22;46458;50.966;7.002;2022-08-23T16:33:24;34.50;81.90
20384;DHT22;46458;50.966;7.002;2022-08-23T16:35:55;34.10;83.50
20384;DHT22;46458;50.966;7.002;2022-08-23T16:38:24;33.80;83.40
20384;DHT22;46458;50.966;7.002;2022-08-23T16:40:53;33.60;84.10
20384;DHT22;46458;50.966;7.002;2022-08-23T16:43:22;33.30;85.20
20384;DHT22;46458;50.966;7.002;2022-08-23T16:45:51;33.10;85.40
20384;DHT22;46458;50.966;7.002;2022-08-23T16:48:20;33.00;86.20
20384;DHT22;46458;50.966;7.002;2022-08-23T16:50:49;32.70;86.50